This is the latest recevied weather packets stored in our database for station/object WS2Z. If no packets are shown the sender has not sent any weather packets the latest 10 day(s).
| Time | Temp. | Humidity | Pressure | Rain* | Wind** | Luminosity | Snow |
|---|---|---|---|---|---|---|---|
| 1778019940 | 28.33° C | 67% | 1014.1 hPa | 0 mm | - | 122 W/m² | - |
| 1778019637 | 28.33° C | 66% | 1013.8 hPa | 0 mm | - | 154 W/m² | - |
| 1778019334 | 28.33° C | 66% | 1013.7 hPa | 0 mm | - | 185 W/m² | - |
| 1778019030 | 28.89° C | 64% | 1013.9 hPa | 0 mm | - | 193 W/m² | - |
| 1778018728 | 28.89° C | 65% | 1013.7 hPa | 0 mm | - | 245 W/m² | - |
| 1778018426 | 28.89° C | 64% | 1013.9 hPa | 0 mm | - | 270 W/m² | - |
| 1778018124 | 29.44° C | 63% | 1013.8 hPa | 0 mm | - | 271 W/m² | - |
| 1778017821 | 28.89° C | 63% | 1013.8 hPa | 0 mm | - | 238 W/m² | - |
| 1778017519 | 28.89° C | 64% | 1013.9 hPa | 0 mm | - | 277 W/m² | - |
| 1778017216 | 28.89° C | 65% | 1013.8 hPa | 0 mm | - | 300 W/m² | - |
| 1778016914 | 29.44° C | 64% | 1013.9 hPa | 0 mm | - | 340 W/m² | - |
| 1778016609 | 28.89° C | 65% | 1013.7 hPa | 0 mm | - | 325 W/m² | - |
| 1778016306 | 28.89° C | 63% | 1013.8 hPa | 0 mm | - | 378 W/m² | - |
| 1778016003 | 28.89° C | 64% | 1013.9 hPa | 0 mm | - | 361 W/m² | - |
| 1778015700 | 29.44° C | 65% | 1013.8 hPa | 0 mm | - | 414 W/m² | - |
| 1778015396 | 28.89° C | 66% | 1013.7 hPa | 0 mm | - | 431 W/m² | - |
| 1778015094 | 29.44° C | 65% | 1014 hPa | 0 mm | - | 447 W/m² | - |
| 1778014790 | 29.44° C | 64% | 1013.9 hPa | 0 mm | - | 459 W/m² | - |
| 1778014489 | 30° C | 64% | 1013.8 hPa | 0 mm | - | 489 W/m² | - |
| 1778014185 | 30.56° C | 61% | 1013.9 hPa | 0 mm | - | 486 W/m² | - |
| 1778013883 | 30° C | 63% | 1013.8 hPa | 0 mm | - | 522 W/m² | - |
| 1778013580 | 30° C | 64% | 1013.8 hPa | 0 mm | - | 548 W/m² | - |
| 1778013277 | 31.11° C | 61% | 1013.8 hPa | 0 mm | - | 568 W/m² | - |
| 1778012973 | 30.56° C | 61% | 1013.7 hPa | 0 mm | - | 486 W/m² | - |
| 1778012670 | 30° C | 62% | 1013.7 hPa | 0 mm | - | 526 W/m² | - |
* Rain latest hour (hover to see other rain measurements)
** Current wind speed in m/s (hover to see current wind gust speed)